Time;durP1;ratioP1;P1;durP2;ratioP2;P2;SDS_P1;SDS_P2;PMS_P1;PMS_P2;Temp;Humidity;BMP_temperature;BMP_pressure;BME280_temperature;BME280_humidity;BME280_pressure;Samples;Min_cycle;Max_cycle;Signal;HPM_P1;HPM_P2
2021/04/20 00:01:38;;;;;;;;;;;;;;;-142.75;65.92;78448.66;5050809;28;20416;-72
2021/04/20 00:04:04;;;;;;;;;;;;;;;-142.75;65.15;78452.59;5051008;28;19948;-73
2021/04/20 00:06:29;;;;;;;;;;;;;;;-142.75;64.86;78456.53;5050817;28;19920;-72
2021/04/20 00:08:55;;;;;;;;;;;;;;;-142.75;65.09;78460.47;5050278;28;19917;-73
2021/04/20 00:11:20;;;;;;;;;;;;;;;-142.75;65.17;78464.41;5049355;28;20004;-73
2021/04/20 00:13:45;;;;;;;;;;;;;;;-142.75;65.00;78480.16;5050735;28;19943;-72
2021/04/20 00:16:10;;;;;;;;;;;;;;;-142.75;64.63;78482.13;5032803;28;19919;-72
2021/04/20 00:18:35;;;;;;;;;;;;;;;-142.75;65.18;78486.06;5050775;28;20561;-72
2021/04/20 00:21:01;;;;;;;;;;;;;;;-142.75;65.96;78488.03;5049139;28;19928;-73
2021/04/20 00:23:26;;;;;;;;;;;;;;;-142.75;65.68;78490.00;5056651;28;19970;-72
2021/04/20 00:25:51;;;;;;;;;;;;;;;-142.75;65.64;78482.13;5070822;28;19912;-72
2021/04/20 00:28:23;;;;;;;;;;;;;;;-142.75;65.00;78488.03;5070523;28;20424;-72
2021/04/20 00:30:49;;;;;;;;;;;;;;;-142.75;65.03;78484.09;5070299;28;19920;-73
2021/04/20 00:33:14;;;;;;;;;;;;;;;-142.75;64.90;78488.03;5070509;28;19913;-72
2021/04/20 00:35:39;;;;;;;;;;;;;;;-142.75;65.18;78490.00;5070512;28;19913;-73
2021/04/20 00:38:04;;;;;;;;;;;;;;;-142.75;66.44;78478.19;5052617;28;20010;-72
2021/04/20 00:40:30;;;;;;;;;;;;;;;-142.75;67.30;78476.22;5043056;28;19959;-72
2021/04/20 00:42:56;;;;;;;;;;;;;;;-142.75;67.06;78476.22;5050480;28;19913;-72
2021/04/20 00:45:23;;;;;;;;;;;;;;;-142.75;66.47;78482.13;5036501;28;19967;-73
2021/04/20 00:47:48;;;;;;;;;;;;;;;-142.75;65.34;78488.03;5070139;28;20007;-72
2021/04/20 00:50:14;;;;;;;;;;;;;;;-142.75;64.75;78486.06;5070220;28;19998;-72
2021/04/20 00:52:39;;;;;;;;;;;;;;;-142.75;64.61;78490.00;5051823;28;20436;-73
2021/04/20 00:55:05;;;;;;;;;;;;;;;-142.75;65.31;78491.97;5070126;28;19923;-72
2021/04/20 00:57:30;;;;;;;;;;;;;;;-142.75;65.34;78495.94;5070558;28;19935;-73
2021/04/20 00:59:55;;;;;;;;;;;;;;;-142.75;66.29;78490.00;5052520;28;19916;-72
2021/04/20 01:02:21;;;;;;;;;;;;;;;-142.75;66.77;78484.09;5051815;28;20366;-72
2021/04/20 01:04:46;;;;;;;;;;;;;;;-142.75;69.84;78468.34;5051713;28;19920;-70
2021/04/20 01:07:12;;;;;;;;;;;;;;;-142.75;69.39;78468.34;5069632;28;19920;-73
2021/04/20 01:09:37;;;;;;;;;;;;;;;-142.75;68.76;78495.94;5069800;28;20435;-73
2021/04/20 01:12:02;;;;;;;;;;;;;;;-142.75;69.08;78472.28;5069921;28;19993;-73
2021/04/20 01:14:28;;;;;;;;;;;;;;;-142.75;68.79;78490.00;5052174;28;19920;-73
2021/04/20 01:16:53;;;;;;;;;;;;;;;-142.75;67.82;78497.91;5068808;28;19916;-73
2021/04/20 01:19:19;;;;;;;;;;;;;;;-142.75;67.32;78507.75;5051859;28;19920;-72
2021/04/20 01:21:47;;;;;;;;;;;;;;;-142.75;67.62;78499.88;5069638;28;19994;-72
2021/04/20 01:24:12;;;;;;;;;;;;;;;-142.75;67.72;78505.78;5068255;28;20086;-73
2021/04/20 01:26:39;;;;;;;;;;;;;;;-142.75;68.06;78505.78;5069961;28;19948;-73
2021/04/20 01:29:05;;;;;;;;;;;;;;;-142.75;68.03;78511.69;5070689;28;20270;-72
2021/04/20 01:31:31;;;;;;;;;;;;;;;-142.75;67.54;78511.69;5054069;28;19913;-72
2021/04/20 01:33:57;;;;;;;;;;;;;;;-142.75;67.26;78517.59;5049975;28;19913;-73
2021/04/20 01:36:24;;;;;;;;;;;;;;;-142.75;66.73;78517.59;5049832;28;20385;-73
2021/04/20 01:38:50;;;;;;;;;;;;;;;-142.75;66.80;78521.53;5049966;28;20004;-73
2021/04/20 01:41:16;;;;;;;;;;;;;;;-142.75;66.73;78525.47;5052342;28;19944;-73
2021/04/20 01:43:41;;;;;;;;;;;;;;;-142.75;67.29;78531.38;5035543;28;19912;-72
2021/04/20 01:46:06;;;;;;;;;;;;;;;-142.75;67.38;78529.41;5053607;28;19920;-73
2021/04/20 01:48:32;;;;;;;;;;;;;;;-142.75;67.56;78527.44;5053653;28;19978;-71
2021/04/20 01:50:58;;;;;;;;;;;;;;;-142.75;69.07;78525.47;5053237;28;20392;-73
2021/04/20 01:53:23;;;;;;;;;;;;;;;-142.75;68.49;78531.38;5053106;28;19912;-73
2021/04/20 01:55:48;;;;;;;;;;;;;;;-142.75;67.62;78543.19;5055518;28;19920;-73
2021/04/20 01:58:14;;;;;;;;;;;;;;;-142.75;66.92;78547.13;5073599;28;19912;-73
2021/04/20 02:00:41;;;;;;;;;;;;;;;-142.75;66.62;78543.19;5073064;28;19916;-71
2021/04/20 02:03:08;;;;;;;;;;;;;;;-142.75;66.27;78547.13;5064612;28;19912;-73
2021/04/20 02:05:33;;;;;;;;;;;;;;;-142.75;66.13;78549.09;5051951;28;20410;-74
2021/04/20 02:07:58;;;;;;;;;;;;;;;-142.75;65.99;78555.00;5052507;28;20024;-73
2021/04/20 02:10:24;;;;;;;;;;;;;;;-142.75;66.08;78562.88;5035086;28;20274;-73
2021/04/20 02:12:49;;;;;;;;;;;;;;;-142.75;66.80;78564.84;5053101;28;20271;-73
2021/04/20 02:15:15;;;;;;;;;;;;;;;-142.75;66.64;78576.66;5051516;28;19919;-73
2021/04/20 02:17:44;;;;;;;;;;;;;;;-142.75;66.79;78582.59;5057762;28;19912;-73
2021/04/20 02:20:11;;;;;;;;;;;;;;;-142.75;66.27;78580.59;5072663;28;20006;-72
2021/04/20 02:22:37;;;;;;;;;;;;;;;-142.75;66.46;78588.50;5072646;28;19916;-73
2021/04/20 02:25:14;;;;;;;;;;;;;;;-142.75;66.45;78596.38;5072590;28;19927;-73
2021/04/20 02:27:40;;;;;;;;;;;;;;;-142.75;66.08;78610.16;5073341;28;20369;-73
2021/04/20 02:30:06;;;;;;;;;;;;;;;-142.75;66.05;78614.09;5071135;28;19998;-73
2021/04/20 02:32:34;;;;;;;;;;;;;;;-142.75;67.35;78629.84;5072328;28;19935;-73
2021/04/20 02:35:00;;;;;;;;;;;;;;;-142.75;67.64;78633.78;5071476;28;20019;-74
2021/04/20 02:37:25;;;;;;;;;;;;;;;-142.75;67.62;78631.81;5072231;28;20389;-73
2021/04/20 02:39:50;;;;;;;;;;;;;;;-142.75;67.69;78629.84;5063303;28;20015;-73
2021/04/20 02:42:15;;;;;;;;;;;;;;;-142.75;67.53;78623.94;5066323;28;20390;-73
2021/04/20 02:44:41;;;;;;;;;;;;;;;-142.75;67.64;78620.00;5072563;28;19993;-73
2021/04/20 02:47:06;;;;;;;;;;;;;;;-142.75;67.93;78598.34;5054149;28;20374;-73
2021/04/20 02:49:31;;;;;;;;;;;;;;;-142.75;68.26;78586.53;5071103;28;19994;-72
2021/04/20 02:51:57;;;;;;;;;;;;;;;-142.75;68.11;78588.50;5053767;28;20376;-73
2021/04/20 02:54:22;;;;;;;;;;;;;;;-142.75;67.64;78594.41;5072026;28;19912;-73
2021/04/20 02:56:48;;;;;;;;;;;;;;;-142.75;67.17;78606.22;5072196;28;19920;-73
2021/04/20 02:59:14;;;;;;;;;;;;;;;-142.75;67.24;78618.03;5072845;28;19920;-73
2021/04/20 03:01:41;;;;;;;;;;;;;;;-142.75;67.35;78620.00;5062562;28;19917;-73
2021/04/20 03:04:06;;;;;;;;;;;;;;;-142.75;67.41;78627.88;5051994;28;19928;-72
2021/04/20 03:06:32;;;;;;;;;;;;;;;-142.75;67.42;78631.81;5061346;28;19912;-73
2021/04/20 03:08:58;;;;;;;;;;;;;;;-142.75;66.91;78639.69;5043962;28;19968;-73
2021/04/20 03:11:26;;;;;;;;;;;;;;;-142.75;66.94;78639.69;5051956;28;20007;-73
2021/04/20 03:13:52;;;;;;;;;;;;;;;-142.75;66.64;78643.63;5034009;28;19974;-73
2021/04/20 03:16:17;;;;;;;;;;;;;;;-142.75;66.61;78645.59;5051924;28;19916;-71
2021/04/20 03:18:43;;;;;;;;;;;;;;;-142.75;66.61;78639.69;5050781;28;19913;-73
2021/04/20 03:21:10;;;;;;;;;;;;;;;-142.75;67.35;78631.81;5050004;28;20390;-72
2021/04/20 03:23:35;;;;;;;;;;;;;;;-142.75;68.01;78614.09;5051887;28;19913;-73
2021/04/20 03:26:02;;;;;;;;;;;;;;;-142.75;68.66;78598.34;5068199;28;19958;-73
2021/04/20 03:28:27;;;;;;;;;;;;;;;-142.75;70.24;78580.59;5052223;28;19959;-73
2021/04/20 03:30:54;;;;;;;;;;;;;;;-142.75;70.52;78586.53;5050037;28;19956;-73
2021/04/20 03:33:35;;;;;;;;;;;;;;;-142.75;70.24;78586.53;5033714;28;19913;-72
2021/04/20 03:36:00;;;;;;;;;;;;;;;-142.75;69.86;78588.50;5051256;28;19921;-72
2021/04/20 03:38:28;;;;;;;;;;;;;;;-142.75;69.12;78610.16;5033572;28;19913;-73
2021/04/20 03:40:57;;;;;;;;;;;;;;;-142.75;68.94;78618.03;5051209;28;19974;-73
2021/04/20 03:43:26;;;;;;;;;;;;;;;-142.75;69.32;78606.22;5051463;28;19913;-72
2021/04/20 03:45:54;;;;;;;;;;;;;;;-142.75;68.58;78606.22;5051230;28;19920;-73
2021/04/20 03:48:22;;;;;;;;;;;;;;;-142.75;68.35;78606.22;5051220;28;19928;-74
2021/04/20 03:50:53;;;;;;;;;;;;;;;-142.75;68.00;78620.00;5051064;28;19917;-73
2021/04/20 03:53:19;;;;;;;;;;;;;;;-142.75;67.85;78625.91;5049960;28;19958;-73
2021/04/20 03:55:49;;;;;;;;;;;;;;;-142.75;68.70;78625.91;5049861;28;19912;-73
2021/04/20 03:58:17;;;;;;;;;;;;;;;-142.75;69.98;78625.91;5060651;22;20432;-75
2021/04/20 04:00:43;;;;;;;;;;;;;;;-142.75;70.18;78618.03;5068316;28;19962;-73
2021/04/20 04:03:10;;;;;;;;;;;;;;;-142.75;70.49;78606.22;5069840;28;19913;-74
2021/04/20 04:05:38;;;;;;;;;;;;;;;-142.75;70.16;78614.09;5070911;28;19916;-74
2021/04/20 04:08:04;;;;;;;;;;;;;;;-142.75;70.00;78621.97;5070220;28;19934;-76
2021/04/20 04:10:30;;;;;;;;;;;;;;;-142.75;69.58;78633.78;5081823;28;19951;-74
2021/04/20 04:12:59;;;;;;;;;;;;;;;-142.75;69.12;78635.75;5091118;28;20483;-75
2021/04/20 04:15:25;;;;;;;;;;;;;;;-142.75;68.80;78645.59;5090843;28;19918;-74
2021/04/20 04:17:53;;;;;;;;;;;;;;;-142.75;68.75;78649.53;5090962;28;20370;-75
2021/04/20 04:20:19;;;;;;;;;;;;;;;-142.75;68.83;78655.44;5072461;28;20002;-74
2021/04/20 04:22:58;;;;;;;;;;;;;;;-142.75;68.73;78659.38;5087088;28;19912;-74
2021/04/20 04:25:27;;;;;;;;;;;;;;;-142.75;68.59;78665.28;5052765;28;19913;-74
2021/04/20 04:27:54;;;;;;;;;;;;;;;-142.75;68.46;78667.25;5070873;28;19912;-74
2021/04/20 04:30:21;;;;;;;;;;;;;;;-142.75;68.73;78661.34;5052565;28;20401;-75
2021/04/20 04:32:47;;;;;;;;;;;;;;;-142.75;68.72;78667.25;5070383;28;19920;-74
2021/04/20 04:35:12;;;;;;;;;;;;;;;-142.75;68.57;78665.28;5052444;28;19913;-75
2021/04/20 04:37:39;;;;;;;;;;;;;;;-142.75;68.51;78665.28;5071671;28;19966;-74
2021/04/20 04:40:06;;;;;;;;;;;;;;;-142.75;68.32;78671.22;5090519;28;20370;-74
2021/04/20 04:42:31;;;;;;;;;;;;;;;-142.75;68.25;78667.25;5090524;28;19916;-74
2021/04/20 04:44:57;;;;;;;;;;;;;;;-142.75;67.98;78677.13;5090014;28;20305;-74
2021/04/20 04:47:22;;;;;;;;;;;;;;;-142.75;67.77;78679.09;5090495;28;19912;-75
2021/04/20 04:49:48;;;;;;;;;;;;;;;-142.75;68.09;78675.16;5090316;28;20003;-74
2021/04/20 04:52:14;;;;;;;;;;;;;;;-142.75;67.95;78673.19;5090083;28;20011;-73
2021/04/20 04:54:40;;;;;;;;;;;;;;;-142.75;67.56;78677.13;5090615;28;19912;-74
2021/04/20 04:57:08;;;;;;;;;;;;;;;-142.75;67.72;78675.16;5090000;28;20018;-74
2021/04/20 04:59:34;;;;;;;;;;;;;;;-142.75;68.24;78675.16;5090806;28;19912;-74
2021/04/20 05:01:59;;;;;;;;;;;;;;;-142.75;68.48;78681.06;5089835;28;19923;-74
2021/04/20 05:04:25;;;;;;;;;;;;;;;-142.75;68.49;78681.06;5090203;28;20434;-74
2021/04/20 05:06:51;;;;;;;;;;;;;;;-142.75;68.48;78673.19;5090498;28;20023;-74
2021/04/20 05:09:18;;;;;;;;;;;;;;;-142.75;68.45;78659.38;5089760;28;20373;-74
2021/04/20 05:11:44;;;;;;;;;;;;;;;-142.75;68.27;78653.47;5071910;28;19912;-74
2021/04/20 05:14:11;;;;;;;;;;;;;;;-142.75;68.42;78645.59;5090322;28;20383;-74
2021/04/20 05:16:36;;;;;;;;;;;;;;;-142.75;68.25;78635.75;5093936;28;20304;-74
2021/04/20 05:19:05;;;;;;;;;;;;;;;-142.75;68.28;78641.66;5094301;28;19912;-74
2021/04/20 05:21:31;;;;;;;;;;;;;;;-142.75;68.41;78635.75;5093834;28;19916;-74
2021/04/20 05:23:56;;;;;;;;;;;;;;;-142.75;68.15;78625.91;5075736;28;20003;-73
2021/04/20 05:26:22;;;;;;;;;;;;;;;-142.75;68.18;78602.28;5093847;28;20030;-73
2021/04/20 05:28:47;;;;;;;;;;;;;;;-142.75;68.10;78582.59;5093917;28;20346;-74
2021/04/20 05:31:12;;;;;;;;;;;;;;;-142.75;68.37;78547.13;5093806;28;19912;-74
2021/04/20 05:33:38;;;;;;;;;;;;;;;-142.75;67.87;78507.75;5094066;28;19969;-74
2021/04/20 05:36:04;;;;;;;;;;;;;;;-142.75;67.80;78476.22;5075637;28;20293;-74
2021/04/20 05:38:29;;;;;;;;;;;;;;;-142.75;67.42;78425.03;5093913;28;19963;-74
2021/04/20 05:40:54;;;;;;;;;;;;;;;-142.75;66.41;78369.88;5075239;28;19955;-75
2021/04/20 05:43:19;;;;;;;;;;;;;;;-142.75;65.08;78338.38;5093791;28;19912;-75
2021/04/20 05:45:45;;;;;;;;;;;;;;;-142.75;64.99;78299.00;5093877;28;19912;-73
2021/04/20 05:48:10;;;;;;;;;;;;;;;-142.75;64.19;78273.38;5075169;28;20419;-75
2021/04/20 05:50:35;;;;;;;;;;;;;;;-142.75;63.59;78224.16;5075337;28;19912;-75
2021/04/20 05:53:01;;;;;;;;;;;;;;;-142.75;63.33;78147.34;5075507;28;19916;-75
2021/04/20 05:55:26;;;;;;;;;;;;;;;-142.75;62.22;78121.75;5074724;28;20004;-74
2021/04/20 05:57:53;;;;;;;;;;;;;;;-142.75;61.00;78113.88;5093725;28;19954;-75
2021/04/20 06:00:19;;;;;;;;;;;;;;;-142.75;61.62;77995.72;5075175;28;19920;-75
2021/04/20 06:02:46;;;;;;;;;;;;;;;-142.75;58.56;77881.50;5075209;28;19912;-74
2021/04/20 06:05:12;;;;;;;;;;;;;;;-142.75;58.04;77802.75;5093452;28;19924;-75
2021/04/20 06:07:39;;;;;;;;;;;;;;;-142.75;56.89;77755.50;5074963;28;19912;-75
2021/04/20 06:10:05;;;;;;;;;;;;;;;-142.75;56.72;77708.22;5075466;28;20003;-76
2021/04/20 06:12:30;;;;;;;;;;;;;;;-142.75;55.50;77621.59;5093556;28;19919;-75
2021/04/20 06:14:55;;;;;;;;;;;;;;;-142.75;53.65;77538.91;5071414;28;19912;-74
2021/04/20 06:17:21;;;;;;;;;;;;;;;-142.75;52.62;77527.09;5072892;28;20616;-74
2021/04/20 06:19:46;;;;;;;;;;;;;;;-142.75;53.16;77523.16;5072609;28;19913;-73
2021/04/20 06:22:14;;;;;;;;;;;;;;;-142.75;52.32;77442.41;5072556;28;20391;-73
2021/04/20 06:24:39;;;;;;;;;;;;;;;-142.75;51.71;77414.84;5054392;28;19916;-74
2021/04/20 06:27:05;;;;;;;;;;;;;;;-142.75;51.83;77385.31;5054341;28;19913;-74
2021/04/20 06:29:30;;;;;;;;;;;;;;;-142.75;50.26;77296.72;5055391;28;19921;-74
2021/04/20 06:31:56;;;;;;;;;;;;;;;-142.75;49.94;77322.31;5072412;28;19995;-74
2021/04/20 06:34:25;;;;;;;;;;;;;;;-142.75;49.38;77212.06;5072779;28;19919;-75
2021/04/20 06:36:51;;;;;;;;;;;;;;;-142.75;48.31;77198.28;5072599;28;19916;-75
2021/04/20 06:39:17;;;;;;;;;;;;;;;-142.75;48.03;77141.19;5072644;28;19919;-74
2021/04/20 06:41:43;;;;;;;;;;;;;;;-142.75;46.23;77062.44;5072300;28;19999;-74
2021/04/20 06:44:08;;;;;;;;;;;;;;;-142.75;45.78;77052.59;5072606;28;20042;-75
2021/04/20 06:46:39;;;;;;;;;;;;;;;-142.75;46.16;77182.53;5054633;28;19919;-75
2021/04/20 06:49:09;;;;;;;;;;;;;;;-142.75;48.75;77279.00;5054227;28;19938;-75
2021/04/20 06:51:37;;;;;;;;;;;;;;;-142.75;47.60;77282.94;5054081;28;19998;-75
2021/04/20 06:54:05;;;;;;;;;;;;;;;-142.75;50.09;77369.56;5072350;28;19920;-75
2021/04/20 06:56:37;;;;;;;;;;;;;;;-142.75;48.28;77251.44;5072428;28;19981;-76
2021/04/20 06:59:13;;;;;;;;;;;;;;;-142.75;48.85;77184.50;5072648;28;19935;-76
2021/04/20 07:01:47;;;;;;;;;;;;;;;-142.75;47.03;77129.38;5071531;28;19927;-74
2021/04/20 07:04:24;;;;;;;;;;;;;;;-142.75;46.63;77147.09;5072152;28;19912;-73
2021/04/20 07:07:01;;;;;;;;;;;;;;;-142.75;46.25;77019.13;5072161;28;19927;-75
2021/04/20 07:09:28;;;;;;;;;;;;;;;-142.75;44.58;76893.13;5071859;28;20003;-75
2021/04/20 07:11:54;;;;;;;;;;;;;;;-142.75;43.21;76826.19;5088117;28;20010;-75
2021/04/20 07:14:33;;;;;;;;;;;;;;;-142.75;43.54;76936.44;5092482;28;20001;-75
2021/04/20 07:17:01;;;;;;;;;;;;;;;-142.75;44.54;76932.50;5091748;28;19934;-75
2021/04/20 07:19:45;;;;;;;;;;;;;;;-142.75;43.17;76944.31;5091750;28;20385;-75
2021/04/20 07:22:33;;;;;;;;;;;;;;;-142.75;45.11;77046.69;5091643;28;19919;-76
2021/04/20 07:25:05;;;;;;;;;;;;;;;-142.75;46.79;77076.22;5073800;28;19919;-75
2021/04/20 07:27:49;;;;;;;;;;;;;;;-142.75;44.97;77052.59;5056486;28;19921;-73
2021/04/20 07:30:21;;;;;;;;;;;;;;;-142.75;46.73;77133.31;5068802;28;20301;-75
2021/04/20 07:33:05;;;;;;;;;;;;;;;-142.75;47.78;77176.63;5070618;28;19947;-74
2021/04/20 07:35:36;;;;;;;;;;;;;;;-142.75;44.84;77027.00;5070746;28;19935;-74
2021/04/20 07:38:05;;;;;;;;;;;;;;;-142.75;44.67;77021.09;5069631;28;19985;-74
2021/04/20 07:40:52;;;;;;;;;;;;;;;-142.75;43.12;76902.97;5069875;28;19987;-74
2021/04/20 07:43:20;;;;;;;;;;;;;;;-142.75;42.71;76883.28;5070519;28;19919;-74
2021/04/20 07:45:53;;;;;;;;;;;;;;;-142.75;42.93;76977.78;5062407;28;20003;-73
2021/04/20 07:48:37;;;;;;;;;;;;;;;-142.75;45.77;77196.31;5090269;28;20412;-74
2021/04/20 07:51:16;;;;;;;;;;;;;;;-142.75;46.98;77219.94;5090137;28;19934;-74
2021/04/20 07:53:48;;;;;;;;;;;;;;;-142.75;47.91;77109.69;5090249;28;19959;-74
2021/04/20 07:56:19;;;;;;;;;;;;;;;-142.75;44.04;76971.88;5089905;28;20025;-74
2021/04/20 07:58:47;;;;;;;;;;;;;;;-142.75;44.24;76960.06;5090728;28;19926;-75
2021/04/20 08:01:21;;;;;;;;;;;;;;;-142.75;43.16;76859.66;5082700;28;19955;-74
2021/04/20 08:04:05;;;;;;;;;;;;;;;-142.75;41.41;76662.81;5069564;28;20015;-74
2021/04/20 08:06:33;;;;;;;;;;;;;;;-142.75;38.96;76444.31;5069712;28;19981;-75
2021/04/20 08:09:01;;;;;;;;;;;;;;;-142.75;37.65;76332.13;5052000;28;20289;-74
2021/04/20 08:11:37;;;;;;;;;;;;;;;-142.75;38.14;76318.34;5060101;28;20038;-74
2021/04/20 08:14:07;;;;;;;;;;;;;;;-142.75;37.08;76278.97;5089969;28;19923;-76
2021/04/20 08:16:33;;;;;;;;;;;;;;;-142.75;35.90;76208.09;5072193;28;19915;-75
2021/04/20 08:18:58;;;;;;;;;;;;;;;-142.75;35.67;76135.28;5071442;28;19958;-74
2021/04/20 08:21:24;;;;;;;;;;;;;;;-142.75;35.94;76304.56;5071443;28;19912;-75
2021/04/20 08:23:52;;;;;;;;;;;;;;;-142.75;36.67;76298.66;5090869;28;19916;-75
2021/04/20 08:26:21;;;;;;;;;;;;;;;-142.75;36.67;76204.16;5072895;28;19940;-76
2021/04/20 08:29:02;;;;;;;;;;;;;;;-142.75;35.90;76204.16;5072979;28;19916;-75
2021/04/20 08:31:31;;;;;;;;;;;;;;;-142.75;36.04;76200.25;5072366;28;19919;-75
2021/04/20 08:34:00;;;;;;;;;;;;;;;-142.75;34.53;76113.63;5072155;28;19912;-77
2021/04/20 08:36:37;;;;;;;;;;;;;;;-142.75;34.01;76015.22;5072421;28;19916;-75
2021/04/20 08:39:05;;;;;;;;;;;;;;;-142.75;33.80;76078.19;5072243;28;19961;-76
2021/04/20 08:41:33;;;;;;;;;;;;;;;-142.75;33.40;75979.78;5072264;28;19916;-76
2021/04/20 08:44:09;;;;;;;;;;;;;;;-142.75;33.18;76023.09;5090549;28;20328;-76
2021/04/20 08:46:52;;;;;;;;;;;;;;;-142.75;33.75;76042.78;5090626;28;19927;-75
2021/04/20 08:49:17;;;;;;;;;;;;;;;-142.75;33.62;76044.75;5090286;28;19916;-75
2021/04/20 08:51:42;;;;;;;;;;;;;;;-142.75;34.46;76025.06;5072288;28;19919;-75
2021/04/20 08:54:11;;;;;;;;;;;;;;;-142.75;34.30;76029.00;5072024;28;19919;-77
2021/04/20 08:56:58;;;;;;;;;;;;;;;-142.75;32.99;75952.25;5090459;28;19912;-75
2021/04/20 08:59:42;;;;;;;;;;;;;;;-142.75;31.79;75786.91;5072862;28;20577;-74
2021/04/20 09:02:19;;;;;;;;;;;;;;;-142.75;31.78;75845.97;5090143;28;19912;-74
2021/04/20 09:05:03;;;;;;;;;;;;;;;-142.75;31.63;75824.31;5072974;28;20011;-72
2021/04/20 09:07:47;;;;;;;;;;;;;;;-142.75;32.41;75861.69;5070295;28;19912;-74
2021/04/20 09:10:14;;;;;;;;;;;;;;;-142.75;32.65;76070.34;5089908;28;20006;-72
2021/04/20 09:12:41;;;;;;;;;;;;;;;-142.75;34.38;76176.63;5067263;28;19912;-74
2021/04/20 09:15:08;;;;;;;;;;;;;;;-142.75;36.76;76259.28;5052271;28;19912;-74
2021/04/20 09:17:38;;;;;;;;;;;;;;;-142.75;32.97;75971.91;5065301;28;20289;-74
2021/04/20 09:20:08;;;;;;;;;;;;;;;-142.75;32.52;76023.09;5089881;28;20334;-73
2021/04/20 09:22:53;;;;;;;;;;;;;;;-142.75;32.40;75849.91;5090020;28;20313;-74
2021/04/20 09:25:29;;;;;;;;;;;;;;;-142.75;31.81;75822.34;5071467;28;19912;-72
2021/04/20 09:28:17;;;;;;;;;;;;;;;-142.75;31.80;75842.03;5070028;28;19958;-75
2021/04/20 09:30:56;;;;;;;;;;;;;;;-142.75;32.56;75975.84;5084796;28;19969;-73
2021/04/20 09:33:33;;;;;;;;;;;;;;;-142.75;31.60;76005.38;5090090;28;20024;-74
2021/04/20 09:35:59;;;;;;;;;;;;;;;-142.75;32.85;75938.47;5090258;28;20049;-74
2021/04/20 09:38:25;;;;;;;;;;;;;;;-142.75;31.42;75905.00;5090361;28;20359;-74
2021/04/20 09:40:51;;;;;;;;;;;;;;;-142.75;32.08;76023.09;5089815;28;19915;-74
2021/04/20 09:43:22;;;;;;;;;;;;;;;-142.75;33.70;76166.78;5071952;28;19912;-74
2021/04/20 09:46:02;;;;;;;;;;;;;;;-142.75;33.72;76050.66;5071624;28;19980;-74
2021/04/20 09:48:30;;;;;;;;;;;;;;;-142.75;33.14;76066.41;5081248;28;20011;-73
2021/04/20 09:51:15;;;;;;;;;;;;;;;-142.75;32.87;75952.25;5069578;28;19916;-72
2021/04/20 09:53:56;;;;;;;;;;;;;;;-142.75;32.06;75944.38;5069684;28;19916;-74
2021/04/20 09:56:25;;;;;;;;;;;;;;;-142.75;32.72;75845.97;5069588;28;19920;-76
2021/04/20 09:58:50;;;;;;;;;;;;;;;-142.75;30.33;75826.28;5075219;22;20442;-74
2021/04/20 10:01:25;;;;;;;;;;;;;;;-142.75;32.18;76090.00;5048092;28;19952;-72
2021/04/20 10:03:58;;;;;;;;;;;;;;;-142.75;33.78;75967.97;5053286;28;20271;-72
2021/04/20 10:06:42;;;;;;;;;;;;;;;-142.75;31.25;76038.84;5053811;28;19916;-72
2021/04/20 10:09:16;;;;;;;;;;;;;;;-142.75;33.04;76038.84;5041440;28;20007;-73
2021/04/20 10:12:01;;;;;;;;;;;;;;;-142.75;31.26;76036.88;5032406;28;19960;-72
2021/04/20 10:14:42;;;;;;;;;;;;;;;-142.75;31.40;76054.59;5032532;28;20341;-71
2021/04/20 10:17:15;;;;;;;;;;;;;;;-142.75;33.28;75969.94;5034193;28;19920;-73
2021/04/20 10:19:53;;;;;;;;;;;;;;;-142.75;29.48;75796.75;5033630;28;20319;-73
2021/04/20 10:22:21;;;;;;;;;;;;;;;-142.75;30.31;75664.91;5032075;28;20028;-73
2021/04/20 10:25:05;;;;;;;;;;;;;;;-142.75;29.30;75676.69;5033582;28;19912;-74
2021/04/20 10:27:32;;;;;;;;;;;;;;;-142.75;29.14;75556.66;5040522;28;19917;-74
2021/04/20 10:30:00;;;;;;;;;;;;;;;-142.75;28.03;75611.75;5046081;28;20375;-74
2021/04/20 10:32:30;;;;;;;;;;;;;;;-142.75;30.19;76113.63;5032924;28;19917;-73
2021/04/20 10:34:56;;;;;;;;;;;;;;;-142.75;32.04;76200.25;5033263;28;19940;-74
2021/04/20 10:37:30;;;;;;;;;;;;;;;-142.75;32.45;76217.94;5031759;28;19913;-74
2021/04/20 10:39:57;;;;;;;;;;;;;;;-142.75;31.69;76227.78;5031901;28;20301;-73
2021/04/20 10:42:27;;;;;;;;;;;;;;;-142.75;32.16;76050.66;5031344;28;19927;-73
2021/04/20 10:44:53;;;;;;;;;;;;;;;-142.75;30.21;75873.50;5031606;28;19913;-74
2021/04/20 10:47:19;;;;;;;;;;;;;;;-142.75;29.04;75808.56;5031712;28;19959;-72
2021/04/20 10:49:49;;;;;;;;;;;;;;;-142.75;30.21;75926.66;5033038;28;19925;-73
2021/04/20 10:52:15;;;;;;;;;;;;;;;-142.75;32.40;76178.59;5031417;28;19952;-73
2021/04/20 10:54:42;;;;;;;;;;;;;;;-142.75;33.72;76294.72;5031222;28;19949;-71
2021/04/20 10:57:11;;;;;;;;;;;;;;;-142.75;32.42;76162.84;5031629;28;20294;-74
2021/04/20 10:59:37;;;;;;;;;;;;;;;-142.75;33.19;76314.41;5031555;28;19920;-71
2021/04/20 11:02:06;;;;;;;;;;;;;;;-142.75;35.98;76395.09;5032649;28;19913;-73
2021/04/20 11:04:33;;;;;;;;;;;;;;;-142.75;34.29;76158.91;5032873;28;19921;-72
2021/04/20 11:07:18;;;;;;;;;;;;;;;-142.75;33.37;76263.22;5032893;28;19917;-72
2021/04/20 11:09:44;;;;;;;;;;;;;;;-142.75;35.12;76338.03;5032572;28;19925;-73
2021/04/20 11:12:13;;;;;;;;;;;;;;;-142.75;32.08;76103.78;5032406;28;19920;-74
2021/04/20 11:14:42;;;;;;;;;;;;;;;-142.75;32.07;76009.31;5031915;28;19963;-73
2021/04/20 11:17:12;;;;;;;;;;;;;;;-142.75;31.19;76113.63;5032589;28;19913;-73
2021/04/20 11:19:42;;;;;;;;;;;;;;;-142.75;33.54;76456.13;5032553;28;19920;-72
2021/04/20 11:22:10;;;;;;;;;;;;;;;-142.75;32.78;76117.56;5032512;28;19913;-72
2021/04/20 11:24:36;;;;;;;;;;;;;;;-142.75;32.23;76215.97;5031307;28;20345;-72
2021/04/20 11:27:06;;;;;;;;;;;;;;;-142.75;33.62;76296.69;5032403;28;19987;-74
2021/04/20 11:29:50;;;;;;;;;;;;;;;-142.75;33.94;76511.25;5032348;28;19924;-72
2021/04/20 11:32:20;;;;;;;;;;;;;;;-142.75;33.18;76172.69;5031424;28;19955;-73
2021/04/20 11:34:47;;;;;;;;;;;;;;;-142.75;33.43;76265.19;5032263;28;19992;-73
2021/04/20 11:37:18;;;;;;;;;;;;;;;-142.75;32.75;76347.84;5032362;28;19913;-72
2021/04/20 11:39:48;;;;;;;;;;;;;;;-142.75;34.71;76530.91;5032289;28;19936;-73
2021/04/20 11:42:15;;;;;;;;;;;;;;;-142.75;34.77;76475.81;5030598;28;20010;-73
2021/04/20 11:44:48;;;;;;;;;;;;;;;-142.75;34.58;76424.63;5032133;28;19952;-74
2021/04/20 11:47:14;;;;;;;;;;;;;;;-142.75;33.91;76379.34;5028161;28;20014;-77
2021/04/20 11:49:50;;;;;;;;;;;;;;;-142.75;33.78;76373.44;5037124;28;19959;-73
2021/04/20 11:52:16;;;;;;;;;;;;;;;-142.75;33.38;76318.34;5050971;28;19913;-72
2021/04/20 11:54:43;;;;;;;;;;;;;;;-142.75;32.35;76328.19;5049843;28;20263;-72
2021/04/20 11:57:08;;;;;;;;;;;;;;;-142.75;34.64;76316.38;5049955;28;19916;-73
2021/04/20 11:59:34;;;;;;;;;;;;;;;-142.75;34.87;76558.47;5050880;28;19919;-72
2021/04/20 12:02:00;;;;;;;;;;;;;;;-142.75;35.26;76501.41;5050032;28;19913;-74
2021/04/20 12:04:30;;;;;;;;;;;;;;;-142.75;35.80;76432.50;5051729;28;19927;-73
2021/04/20 12:06:56;;;;;;;;;;;;;;;-142.75;34.77;76416.75;5051657;28;19912;-73
2021/04/20 12:09:23;;;;;;;;;;;;;;;-142.75;35.00;76399.03;5048694;28;20382;-73
2021/04/20 12:11:49;;;;;;;;;;;;;;;-142.75;35.66;76554.53;5049953;28;19920;-73
2021/04/20 12:14:18;;;;;;;;;;;;;;;-142.75;36.50;76525.03;5051453;28;19913;-73
2021/04/20 12:16:44;;;;;;;;;;;;;;;-142.75;36.14;76487.63;5051326;28;19913;-72
2021/04/20 12:19:12;;;;;;;;;;;;;;;-142.75;36.35;76460.06;5051466;28;19921;-73
2021/04/20 12:21:39;;;;;;;;;;;;;;;-142.75;34.80;76456.13;5051025;28;19948;-72
2021/04/20 12:24:06;;;;;;;;;;;;;;;-142.75;34.37;76450.22;5050891;28;20456;-74
2021/04/20 12:26:32;;;;;;;;;;;;;;;-142.75;34.19;76511.25;5051261;28;20461;-74
2021/04/20 12:28:58;;;;;;;;;;;;;;;-142.75;37.13;76603.75;5051148;28;20019;-73
2021/04/20 12:31:31;;;;;;;;;;;;;;;-142.75;36.44;76621.47;5049715;28;19919;-73
2021/04/20 12:33:57;;;;;;;;;;;;;;;-142.75;36.42;76605.72;5049206;28;19919;-73
2021/04/20 12:36:27;;;;;;;;;;;;;;;-142.75;35.84;76572.25;5051022;28;19913;-73